Mount Gretna, Pennsylvania
Current Conditions -  °F | °C
As of 9:25 AM on Monday 26 Jan 2015 (Local Time) from KLNS Reporting Station
Light Snow Light Snow  
Wind Chill: 10°   Ceiling: 2600
Heat Index: 23°   Visibility: 1.2mi
Dew Point: 19°   Wind: 15mph
Humidity: 85%   Direction: 70°ENE
Pressure: 29.87"   Gusts: NA
Location:  40.25°N, 76.47°W
Report Text: KLNS 261425Z 07013KT 1 1/4SM -SN BR FEW019 OVC026 M05/M07 A2987 RMK AO2 P0000 T10501072
Loading
Personal Weather Stations






























Interactive Weather Map New forecast layout! Learn more

10-Day Weather Forecast

Advertisements
Track Severe Weather on mobile